Time;durP1;ratioP1;P1;durP2;ratioP2;P2;SDS_P1;SDS_P2;PMS_P1;PMS_P2;Temp;Humidity;BMP_temperature;BMP_pressure;BME280_temperature;BME280_humidity;BME280_pressure;Samples;Min_cycle;Max_cycle;Signal;HPM_P1;HPM_P2
2022/01/29 00:00:21;;;;;;;7.28;3.10;;;;;;;8.55;100.00;102660.63;5094672;28;20054;-54
2022/01/29 00:02:49;;;;;;;5.80;2.53;;;;;;;8.60;100.00;102660.53;5095648;28;20079;-53
2022/01/29 00:05:18;;;;;;;4.72;2.80;;;;;;;8.57;100.00;102660.59;5094100;28;20130;-54
2022/01/29 00:07:47;;;;;;;5.13;2.85;;;;;;;8.57;100.00;102660.59;5095496;28;20060;-53
2022/01/29 00:10:15;;;;;;;6.50;2.60;;;;;;;8.59;100.00;102669.38;5094629;28;20071;-53
2022/01/29 00:12:44;;;;;;;5.20;2.60;;;;;;;8.61;100.00;102667.56;5094594;28;20059;-53
2022/01/29 00:15:13;;;;;;;4.85;2.63;;;;;;;8.54;100.00;102659.78;5094009;28;20056;-53
2022/01/29 00:17:42;;;;;;;4.32;2.42;;;;;;;8.50;100.00;102655.41;5094236;28;20056;-54
2022/01/29 00:20:11;;;;;;;5.15;2.53;;;;;;;8.50;100.00;102652.78;5094920;28;20063;-54
2022/01/29 00:22:40;;;;;;;5.70;2.63;;;;;;;8.53;100.00;102649.22;5094789;28;20056;-54
2022/01/29 00:25:09;;;;;;;5.50;2.05;;;;;;;8.60;100.00;102653.47;5094723;28;20063;-53
2022/01/29 00:27:37;;;;;;;5.03;2.40;;;;;;;8.59;100.00;102654.41;5094186;28;20056;-53
2022/01/29 00:30:09;;;;;;;4.15;2.25;;;;;;;8.62;100.00;102648.16;5094472;28;20439;-53
2022/01/29 00:32:39;;;;;;;4.00;2.10;;;;;;;8.59;100.00;102650.84;5095337;28;20062;-54
2022/01/29 00:35:08;;;;;;;2.90;1.80;;;;;;;8.57;100.00;102665.88;5094488;28;20052;-53
2022/01/29 00:37:37;;;;;;;3.85;2.22;;;;;;;8.55;100.00;102658.84;5094104;28;20060;-54
2022/01/29 00:40:06;;;;;;;4.32;2.30;;;;;;;8.55;100.00;102647.41;5094074;28;20063;-53
2022/01/29 00:42:35;;;;;;;4.57;2.50;;;;;;;8.63;100.00;102650.78;5094329;28;20056;-54
2022/01/29 00:45:03;;;;;;;5.38;1.83;;;;;;;8.57;100.00;102656.16;5094097;28;20052;-53
2022/01/29 00:47:31;;;;;;;4.78;2.10;;;;;;;8.56;100.00;102649.16;5093885;28;20056;-54
2022/01/29 00:50:01;;;;;;;3.88;2.15;;;;;;;8.60;100.00;102649.97;5093999;28;20416;-54
2022/01/29 00:52:29;;;;;;;3.50;2.25;;;;;;;8.60;100.00;102639.38;5094261;28;20056;-54
2022/01/29 00:54:57;;;;;;;4.28;2.20;;;;;;;8.63;100.00;102641.97;5095714;28;20052;-53
2022/01/29 00:57:28;;;;;;;3.05;1.63;;;;;;;8.60;100.00;102636.75;5099032;28;20068;-53
2022/01/29 00:59:56;;;;;;;3.55;2.15;;;;;;;8.52;100.00;102631.59;5098046;28;20503;-54
2022/01/29 01:02:25;;;;;;;2.95;1.95;;;;;;;8.57;100.00;102639.44;5098429;28;20052;-53
2022/01/29 01:04:53;;;;;;;6.05;2.10;;;;;;;8.54;100.00;102643.03;5098614;28;20130;-54
2022/01/29 01:07:22;;;;;;;3.65;1.90;;;;;;;8.53;100.00;102633.34;5097593;28;20427;-54
2022/01/29 01:09:51;;;;;;;3.88;1.80;;;;;;;8.52;100.00;102629.84;5098771;28;20422;-54
2022/01/29 01:12:19;;;;;;;4.15;2.00;;;;;;;8.52;100.00;102621.91;5098690;28;20388;-54
2022/01/29 01:14:47;;;;;;;2.90;1.60;;;;;;;8.46;100.00;102627.31;5097914;28;20059;-54
2022/01/29 01:17:15;;;;;;;3.50;2.10;;;;;;;8.45;100.00;102635.25;5098611;28;20056;-54
2022/01/29 01:19:44;;;;;;;4.25;2.00;;;;;;;8.47;100.00;102623.75;5097427;28;20057;-54
2022/01/29 01:22:14;;;;;;;3.67;2.17;;;;;;;8.43;100.00;102624.72;5097613;28;20056;-54
2022/01/29 01:24:44;;;;;;;4.45;1.58;;;;;;;8.41;100.00;102618.56;5097965;28;20066;-54
2022/01/29 01:27:12;;;;;;;5.35;1.92;;;;;;;8.44;100.00;102626.47;5097226;28;20070;-54
2022/01/29 01:29:41;;;;;;;3.63;2.10;;;;;;;8.41;100.00;102621.19;5097281;28;20503;-54
2022/01/29 01:32:11;;;;;;;5.15;1.77;;;;;;;8.48;100.00;102612.25;5097212;28;20063;-54
2022/01/29 01:34:44;;;;;;;4.22;1.90;;;;;;;8.40;100.00;102622.09;5096916;28;20419;-54
2022/01/29 01:37:19;;;;;;;2.65;1.52;;;;;;;8.41;100.00;102613.25;5098279;28;20060;-54
2022/01/29 01:39:49;;;;;;;3.35;1.67;;;;;;;8.41;100.00;102613.25;5097166;28;20526;-53
2022/01/29 01:42:17;;;;;;;2.75;1.48;;;;;;;8.39;100.00;102609.78;5097221;28;20538;-54
2022/01/29 01:44:48;;;;;;;3.28;1.70;;;;;;;8.35;100.00;102602.78;5096707;28;20066;-54
2022/01/29 01:47:17;;;;;;;4.30;1.67;;;;;;;8.40;100.00;102611.50;5097084;28;20062;-54
2022/01/29 01:49:46;;;;;;;3.30;1.80;;;;;;;8.42;100.00;102614.13;5097168;28;20063;-54
2022/01/29 01:52:14;;;;;;;3.72;1.60;;;;;;;8.34;100.00;102609.88;5096839;28;20056;-54
2022/01/29 01:54:44;;;;;;;3.63;2.00;;;;;;;8.22;100.00;102617.16;5097280;28;20056;-54
2022/01/29 01:57:13;;;;;;;3.72;1.85;;;;;;;8.08;100.00;102620.06;5097014;28;20060;-54
2022/01/29 01:59:42;;;;;;;3.80;1.70;;;;;;;8.06;100.00;102620.06;5096679;28;20071;-54
2022/01/29 02:02:10;;;;;;;2.88;1.52;;;;;;;7.95;100.00;102598.25;5097855;28;20555;-54
2022/01/29 02:04:39;;;;;;;4.38;1.92;;;;;;;8.03;100.00;102604.25;5096591;28;20056;-54
2022/01/29 02:07:07;;;;;;;4.25;1.50;;;;;;;8.09;100.00;102601.53;5095714;28;20062;-54
2022/01/29 02:09:38;;;;;;;3.40;1.77;;;;;;;8.03;100.00;102601.63;5096477;28;20056;-54
2022/01/29 02:12:09;;;;;;;3.33;1.90;;;;;;;8.08;100.00;102602.41;5096939;28;20060;-54
2022/01/29 02:14:39;;;;;;;5.55;2.20;;;;;;;8.12;100.00;102603.22;5097595;28;20056;-54
2022/01/29 02:17:10;;;;;;;4.75;2.20;;;;;;;8.09;100.00;102590.94;5096100;28;20565;-54
2022/01/29 02:19:38;;;;;;;4.55;2.03;;;;;;;8.14;100.00;102604.09;5096827;28;20060;-54
2022/01/29 02:22:08;;;;;;;3.40;2.05;;;;;;;8.07;100.00;102602.44;5096556;28;20059;-54
2022/01/29 02:24:37;;;;;;;6.20;2.22;;;;;;;8.17;100.00;102610.19;5096213;28;20056;-54
2022/01/29 02:27:05;;;;;;;4.05;2.03;;;;;;;8.13;100.00;102608.47;5096055;28;20059;-54
2022/01/29 02:29:35;;;;;;;6.00;2.03;;;;;;;8.13;100.00;102613.78;5096096;28;20056;-54
2022/01/29 02:32:04;;;;;;;4.95;2.30;;;;;;;8.12;100.00;102617.34;5096065;28;20511;-54
2022/01/29 02:34:32;;;;;;;3.47;2.20;;;;;;;8.17;100.00;102610.19;5096936;28;20059;-54
2022/01/29 02:37:01;;;;;;;6.95;2.03;;;;;;;8.23;100.00;102613.63;5095970;28;20100;-54
2022/01/29 02:39:31;;;;;;;4.68;2.17;;;;;;;8.30;100.00;102620.53;5095921;28;20060;-54
2022/01/29 02:41:59;;;;;;;5.20;2.20;;;;;;;8.31;100.00;102623.13;5095865;28;20063;-54
2022/01/29 02:44:28;;;;;;;6.35;1.95;;;;;;;8.41;100.00;102623.84;5095869;28;20052;-54
2022/01/29 02:47:08;;;;;;;3.72;1.65;;;;;;;8.31;100.00;102623.13;5096543;28;20052;-54
2022/01/29 02:49:36;;;;;;;4.13;1.88;;;;;;;8.36;100.00;102623.06;5095709;28;20059;-54
2022/01/29 02:52:05;;;;;;;4.47;2.17;;;;;;;8.35;100.00;102629.25;5095678;28;20060;-54
2022/01/29 02:54:35;;;;;;;3.75;2.03;;;;;;;8.37;100.00;102627.44;5095387;28;20056;-54
2022/01/29 02:57:04;;;;;;;4.25;2.10;;;;;;;8.39;100.00;102620.34;5095600;28;20066;-54
2022/01/29 02:59:32;;;;;;;3.47;1.90;;;;;;;8.40;100.00;102624.72;5095842;28;20064;-54
2022/01/29 03:02:00;;;;;;;3.35;1.80;;;;;;;8.40;100.00;102614.16;5096361;28;20072;-54
2022/01/29 03:04:29;;;;;;;3.38;1.70;;;;;;;8.36;100.00;102617.78;5096134;28;20102;-54
2022/01/29 03:06:57;;;;;;;5.43;1.60;;;;;;;8.37;100.00;102616.84;5095541;28;20134;-54
2022/01/29 03:09:25;;;;;;;2.78;1.77;;;;;;;8.35;100.00;102616.91;5095614;28;20415;-54
2022/01/29 03:11:57;;;;;;;3.40;1.45;;;;;;;8.35;100.00;102608.97;5095583;28;20053;-54
2022/01/29 03:14:25;;;;;;;4.28;1.77;;;;;;;8.37;100.00;102614.19;5096141;28;20056;-54
2022/01/29 03:16:53;;;;;;;3.55;1.30;;;;;;;8.38;100.00;102614.19;5095161;28;20052;-54
2022/01/29 03:19:21;;;;;;;1.92;1.10;;;;;;;8.37;100.00;102611.56;5094184;28;20060;-54
2022/01/29 03:21:50;;;;;;;1.35;0.80;;;;;;;8.38;100.00;102608.88;5095518;28;20074;-54
2022/01/29 03:24:18;;;;;;;1.45;0.93;;;;;;;8.40;100.00;102614.16;5095085;28;20063;-54
2022/01/29 03:26:46;;;;;;;3.90;1.20;;;;;;;8.35;100.00;102601.03;5095329;28;20056;-54
2022/01/29 03:29:16;;;;;;;2.50;0.95;;;;;;;8.35;100.00;102602.78;5095236;28;20056;-54
2022/01/29 03:31:44;;;;;;;3.47;1.05;;;;;;;8.32;100.00;102600.19;5094930;28;20508;-54
2022/01/29 03:34:12;;;;;;;2.47;1.00;;;;;;;8.32;100.00;102597.56;5094874;28;20052;-54
2022/01/29 03:36:40;;;;;;;2.72;1.30;;;;;;;8.37;100.00;102593.03;5095699;28;20059;-54
2022/01/29 03:39:08;;;;;;;2.15;1.10;;;;;;;8.30;100.00;102592.28;5095363;28;20063;-54
2022/01/29 03:41:37;;;;;;;2.22;1.10;;;;;;;8.30;100.00;102580.84;5095097;28;20056;-53
2022/01/29 03:44:07;;;;;;;1.90;1.20;;;;;;;8.20;100.00;102582.81;5094727;28;20056;-54
2022/01/29 03:46:38;;;;;;;4.10;1.15;;;;;;;8.12;100.00;102590.91;5094698;28;20063;-54
2022/01/29 03:49:06;;;;;;;2.33;1.02;;;;;;;8.03;100.00;102591.06;5094302;28;20060;-54
2022/01/29 03:51:35;;;;;;;1.60;1.00;;;;;;;7.97;100.00;102584.13;5094788;28;20056;-54
2022/01/29 03:54:04;;;;;;;2.10;1.10;;;;;;;7.82;100.00;102572.03;5095175;28;20411;-54
2022/01/29 03:56:32;;;;;;;2.60;0.82;;;;;;;7.83;100.00;102583.47;5094584;28;20059;-54
2022/01/29 03:59:00;;;;;;;3.25;1.17;;;;;;;7.75;100.00;102580.97;5094526;28;20052;-54
2022/01/29 04:01:28;;;;;;;2.33;1.10;;;;;;;7.84;100.00;102573.81;5094999;28;20499;-54
2022/01/29 04:03:59;;;;;;;3.10;1.00;;;;;;;7.93;100.00;102563.06;5094732;28;20509;-54
2022/01/29 04:06:27;;;;;;;3.67;1.00;;;;;;;7.92;100.00;102569.25;5095275;28;20483;-54
2022/01/29 04:08:56;;;;;;;3.55;1.00;;;;;;;7.93;100.00;102577.13;5094246;28;20059;-54
2022/01/29 04:11:25;;;;;;;1.80;0.90;;;;;;;7.93;100.00;102576.25;5094673;28;20056;-54
2022/01/29 04:13:53;;;;;;;3.97;1.13;;;;;;;8.00;100.00;102569.97;5094827;28;20056;-54
2022/01/29 04:16:21;;;;;;;1.50;0.90;;;;;;;7.96;100.00;102569.16;5095505;28;20052;-54
2022/01/29 04:18:50;;;;;;;1.75;1.00;;;;;;;7.86;100.00;102572.84;5094245;28;20146;-53
2022/01/29 04:21:19;;;;;;;1.45;0.93;;;;;;;7.70;100.00;102572.28;5094266;28;20056;-54
2022/01/29 04:23:47;;;;;;;3.47;0.93;;;;;;;7.52;100.00;102572.56;5094235;28;20052;-54
2022/01/29 04:26:16;;;;;;;1.55;0.68;;;;;;;7.42;100.00;102571.84;5093983;28;20056;-53
2022/01/29 04:28:45;;;;;;;5.53;1.00;;;;;;;7.32;100.00;102565.84;5094117;28;20070;-54
2022/01/29 04:31:18;;;;;;;0.60;0.60;;;;;;;7.38;100.00;102571.03;5096915;28;20530;-53
2022/01/29 04:33:46;;;;;;;2.05;0.80;;;;;;;7.39;100.00;102570.13;5098977;28;20060;-53
2022/01/29 04:36:14;;;;;;;1.35;0.60;;;;;;;7.27;100.00;102570.31;5098061;28;20063;-53
2022/01/29 04:38:44;;;;;;;0.88;0.70;;;;;;;7.18;100.00;102562.56;5098270;28;20504;-53
2022/01/29 04:41:12;;;;;;;1.65;0.70;;;;;;;7.06;100.00;102564.47;5098218;28;20059;-53
2022/01/29 04:43:40;;;;;;;2.83;0.70;;;;;;;7.03;100.00;102574.22;5098165;28;20060;-53
2022/01/29 04:46:09;;;;;;;2.17;0.70;;;;;;;6.96;100.00;102568.16;5098556;28;20056;-53
2022/01/29 04:48:37;;;;;;;0.68;0.50;;;;;;;6.91;100.00;102563.81;5098321;28;20125;-53
2022/01/29 04:51:06;;;;;;;2.58;0.70;;;;;;;6.92;100.00;102565.56;5098353;28;20063;-53
2022/01/29 04:53:35;;;;;;;1.92;0.63;;;;;;;6.80;100.00;102566.59;5098572;28;20082;-53
2022/01/29 04:56:06;;;;;;;1.00;0.70;;;;;;;6.76;100.00;102564.88;5098005;28;20056;-53
2022/01/29 04:58:34;;;;;;;1.85;0.68;;;;;;;6.88;100.00;102570.88;5098264;28;20055;-53
2022/01/29 05:01:02;;;;;;;2.53;1.60;;;;;;;7.11;100.00;102569.69;5098429;28;20105;-54
2022/01/29 05:03:31;;;;;;;2.72;1.02;;;;;;;7.31;100.00;102563.22;5098072;28;20091;-54
2022/01/29 05:06:00;;;;;;;4.07;1.15;;;;;;;7.39;100.00;102567.47;5098666;28;20099;-53
2022/01/29 05:08:33;;;;;;;6.38;2.85;;;;;;;7.50;100.00;102563.78;5098004;28;20056;-53
2022/01/29 05:11:02;;;;;;;3.47;1.10;;;;;;;7.56;100.00;102569.84;5097700;28;20060;-53
2022/01/29 05:13:33;;;;;;;3.30;1.52;;;;;;;7.65;100.00;102573.22;5098633;28;20056;-53
2022/01/29 05:16:10;;;;;;;1.63;0.90;;;;;;;7.78;100.00;102564.19;5097316;28;20052;-53
2022/01/29 05:26:58;;;;;;;1.80;1.05;;;;;;;7.93;100.00;102560.41;5097335;28;20051;-53
2022/01/29 05:29:31;;;;;;;2.33;1.35;;;;;;;7.93;100.00;102573.63;5097897;28;20060;-53
2022/01/29 05:31:59;;;;;;;2.47;1.10;;;;;;;7.95;100.00;102571.81;5097927;28;20056;-53
2022/01/29 05:34:28;;;;;;;2.75;1.55;;;;;;;7.97;100.00;102570.91;5097834;28;20087;-53
2022/01/29 05:36:56;;;;;;;2.00;1.00;;;;;;;7.96;100.00;102566.50;5097159;28;20701;-53
2022/01/29 05:39:25;;;;;;;2.47;1.45;;;;;;;7.96;100.00;102574.44;5097354;28;20060;-53
2022/01/29 05:41:54;;;;;;;4.55;1.15;;;;;;;7.95;100.00;102582.38;5095853;28;20522;-54
2022/01/29 05:44:24;;;;;;;1.98;1.17;;;;;;;7.93;100.00;102581.56;5097646;28;20059;-54
2022/01/29 05:46:53;;;;;;;2.72;1.15;;;;;;;7.92;100.00;102572.75;5097478;28;20056;-54
2022/01/29 05:49:21;;;;;;;2.30;1.10;;;;;;;7.95;100.00;102582.38;5097656;28;20056;-54
2022/01/29 05:51:50;;;;;;;3.08;1.10;;;;;;;7.99;100.00;102584.09;5096843;28;20055;-54
2022/01/29 05:54:18;;;;;;;4.47;1.50;;;;;;;7.97;100.00;102586.75;5096841;28;20131;-54
2022/01/29 05:56:47;;;;;;;2.83;1.38;;;;;;;8.00;100.00;102586.72;5097078;28;20056;-54
2022/01/29 05:59:15;;;;;;;1.75;1.10;;;;;;;8.02;100.00;102584.03;5096718;28;20056;-54
2022/01/29 06:01:43;;;;;;;2.80;1.55;;;;;;;8.07;100.00;102587.47;5096932;28;20056;-54
2022/01/29 06:04:13;;;;;;;7.03;1.08;;;;;;;8.00;100.00;102591.09;5096600;28;20518;-53
2022/01/29 06:06:41;;;;;;;3.97;1.40;;;;;;;8.05;100.00;102599.81;5096527;28;20056;-53
2022/01/29 06:09:10;;;;;;;3.15;1.35;;;;;;;8.01;100.00;102614.00;5096784;28;20048;-53
2022/01/29 06:11:38;;;;;;;3.47;1.60;;;;;;;8.03;100.00;102606.91;5096994;28;20052;-53
2022/01/29 06:14:06;;;;;;;3.70;1.33;;;;;;;8.02;100.00;102602.53;5096806;28;20056;-53
2022/01/29 06:16:34;;;;;;;6.07;1.45;;;;;;;8.07;100.00;102608.63;5096492;28;20067;-53
2022/01/29 06:19:03;;;;;;;2.17;1.35;;;;;;;8.07;100.00;102608.63;5097247;28;20462;-53
2022/01/29 06:21:32;;;;;;;2.22;1.38;;;;;;;8.03;100.00;102620.13;5096579;28;20063;-53
2022/01/29 06:24:02;;;;;;;2.47;1.23;;;;;;;8.11;100.00;102620.00;5097158;28;20056;-53
2022/01/29 06:26:30;;;;;;;2.78;1.60;;;;;;;8.09;100.00;102622.66;5096004;28;20071;-53
2022/01/29 06:28:59;;;;;;;3.47;1.67;;;;;;;8.07;100.00;102619.19;5096077;28;20056;-53
2022/01/29 06:31:27;;;;;;;3.20;1.52;;;;;;;8.01;100.00;102616.66;5096663;28;20510;-53
2022/01/29 06:33:55;;;;;;;3.05;1.58;;;;;;;7.98;100.00;102609.66;5096066;28;20522;-53
2022/01/29 06:36:24;;;;;;;5.60;2.00;;;;;;;7.92;100.00;102614.19;5097211;28;20052;-53
2022/01/29 06:38:53;;;;;;;4.32;1.70;;;;;;;7.96;100.00;102605.28;5096814;28;20056;-53
2022/01/29 06:41:21;;;;;;;2.58;1.50;;;;;;;7.94;100.00;102601.81;5095914;28;20415;-53
2022/01/29 06:43:50;;;;;;;4.80;1.65;;;;;;;7.96;100.00;102606.16;5096197;28;20056;-53
2022/01/29 06:46:18;;;;;;;2.35;1.50;;;;;;;7.94;100.00;102607.09;5096157;28;20060;-53
2022/01/29 06:48:47;;;;;;;5.50;2.28;;;;;;;7.94;100.00;102607.94;5095748;28;20058;-53
2022/01/29 06:51:17;;;;;;;3.35;1.92;;;;;;;7.91;100.00;102604.50;5096037;28;20052;-53
2022/01/29 06:53:45;;;;;;;4.53;1.92;;;;;;;7.92;100.00;102603.59;5095466;28;20415;-53
2022/01/29 06:56:15;;;;;;;4.65;1.90;;;;;;;7.86;100.00;102593.13;5095394;28;20052;-54
2022/01/29 06:58:43;;;;;;;4.65;2.05;;;;;;;7.77;100.00;102597.69;5095595;28;20056;-53
2022/01/29 07:01:31;;;;;;;3.05;1.80;;;;;;;7.64;100.00;102596.13;5095779;28;20109;-54
2022/01/29 07:03:59;;;;;;;4.95;1.90;;;;;;;7.58;100.00;102593.59;5095726;28;20060;-54
2022/01/29 07:06:28;;;;;;;3.78;1.95;;;;;;;7.55;100.00;102598.94;5096620;28;20052;-54
2022/01/29 07:08:57;;;;;;;5.43;1.90;;;;;;;7.61;100.00;102582.97;5095657;28;20060;-53
2022/01/29 07:11:27;;;;;;;5.45;1.83;;;;;;;7.61;100.00;102583.84;5096050;28;20055;-53
2022/01/29 07:14:02;;;;;;;3.53;1.77;;;;;;;7.52;100.00;102584.00;5095257;28;20048;-53
2022/01/29 07:16:30;;;;;;;2.85;1.70;;;;;;;7.49;100.00;102583.19;5095012;28;20056;-53
2022/01/29 07:18:59;;;;;;;3.75;1.80;;;;;;;7.42;100.00;102588.56;5095150;28;20052;-53
2022/01/29 07:21:27;;;;;;;5.07;1.88;;;;;;;7.45;100.00;102577.09;5095452;28;20511;-54
2022/01/29 07:23:55;;;;;;;3.95;1.90;;;;;;;7.39;100.00;102583.31;5095077;28;20538;-54
2022/01/29 07:26:23;;;;;;;3.92;1.80;;;;;;;7.40;100.00;102584.22;5095953;28;20052;-54
2022/01/29 07:28:53;;;;;;;3.15;1.40;;;;;;;7.50;100.00;102583.16;5094971;28;20135;-54
2022/01/29 07:31:22;;;;;;;3.15;1.52;;;;;;;7.54;100.00;102581.34;5096026;28;20060;-53
2022/01/29 07:33:50;;;;;;;2.55;1.40;;;;;;;7.52;100.00;102584.00;5094882;28;20056;-54
2022/01/29 07:36:19;;;;;;;3.40;1.33;;;;;;;7.54;100.00;102589.25;5095520;28;20062;-54
2022/01/29 07:38:47;;;;;;;1.88;1.15;;;;;;;7.45;100.00;102592.94;5095123;28;20052;-54
2022/01/29 07:41:15;;;;;;;1.92;1.00;;;;;;;7.43;100.00;102586.78;5095396;28;20087;-54
2022/01/29 07:43:43;;;;;;;3.22;1.20;;;;;;;7.47;100.00;102585.00;5095027;28;20052;-54
2022/01/29 07:46:13;;;;;;;4.05;1.30;;;;;;;7.47;100.00;102585.84;5095313;28;20125;-54
2022/01/29 07:48:41;;;;;;;1.88;1.17;;;;;;;7.55;100.00;102586.59;5094882;28;20056;-54
2022/01/29 07:51:09;;;;;;;2.33;1.05;;;;;;;7.52;100.00;102591.06;5094809;28;20060;-54
2022/01/29 07:53:38;;;;;;;3.58;1.10;;;;;;;7.56;100.00;102595.38;5094891;28;20056;-54
2022/01/29 07:56:06;;;;;;;3.55;1.13;;;;;;;7.61;100.00;102596.19;5094324;28;20500;-54
2022/01/29 07:58:34;;;;;;;2.83;1.08;;;;;;;7.62;100.00;102596.16;5094672;28;20422;-54
2022/01/29 08:01:03;;;;;;;2.20;1.05;;;;;;;7.63;100.00;102591.75;5095246;28;20056;-54
2022/01/29 08:03:33;;;;;;;4.75;1.40;;;;;;;7.59;100.00;102590.06;5094421;28;20056;-54
2022/01/29 08:06:01;;;;;;;3.28;1.27;;;;;;;7.53;100.00;102590.16;5093626;28;20561;-54
2022/01/29 08:08:29;;;;;;;2.75;1.10;;;;;;;7.51;100.00;102587.53;5094681;28;20056;-54
2022/01/29 08:10:57;;;;;;;3.38;1.45;;;;;;;7.64;100.00;102588.22;5094260;28;20060;-53
2022/01/29 08:13:26;;;;;;;4.45;1.35;;;;;;;7.66;100.00;102582.91;5094329;28;20063;-54
2022/01/29 08:15:54;;;;;;;4.07;1.42;;;;;;;7.74;100.00;102595.09;5095483;28;20056;-53
2022/01/29 08:18:22;;;;;;;2.60;1.05;;;;;;;7.74;100.00;102592.44;5094545;28;20500;-54
2022/01/29 08:20:52;;;;;;;2.20;1.20;;;;;;;7.80;100.00;102591.44;5094764;28;20062;-54
2022/01/29 08:23:20;;;;;;;4.93;1.33;;;;;;;7.78;100.00;102590.63;5095043;28;20056;-54
2022/01/29 08:25:48;;;;;;;3.05;1.00;;;;;;;7.81;100.00;102594.06;5094177;28;20071;-54
2022/01/29 08:28:17;;;;;;;7.28;1.30;;;;;;;7.88;100.00;102591.34;5094498;28;20060;-54
2022/01/29 08:30:45;;;;;;;3.55;1.23;;;;;;;7.99;100.00;102586.72;5094918;28;20601;-54
2022/01/29 08:33:17;;;;;;;2.30;1.13;;;;;;;8.10;100.00;102591.81;5094480;28;20502;-54
2022/01/29 08:35:46;;;;;;;3.88;1.33;;;;;;;8.07;100.00;102586.56;5094311;28;20063;-54
2022/01/29 08:38:16;;;;;;;2.20;1.20;;;;;;;8.17;100.00;102589.03;5095232;28;20052;-54
2022/01/29 08:40:44;;;;;;;2.35;1.00;;;;;;;8.32;100.00;102581.69;5094632;28;20067;-54
2022/01/29 08:43:12;;;;;;;2.65;1.30;;;;;;;8.24;100.00;102578.31;5095134;28;20052;-54
2022/01/29 08:45:41;;;;;;;2.97;1.00;;;;;;;8.27;100.00;102578.28;5094067;28;20135;-54
2022/01/29 08:48:09;;;;;;;1.27;0.90;;;;;;;8.35;100.00;102574.59;5094003;28;20052;-54
2022/01/29 08:50:37;;;;;;;1.65;1.00;;;;;;;8.39;100.00;102567.47;5094233;28;20056;-54
2022/01/29 08:53:05;;;;;;;2.38;1.00;;;;;;;8.48;100.00;102567.28;5094272;28;20052;-54
2022/01/29 08:55:37;;;;;;;2.70;1.17;;;;;;;8.62;100.00;102568.78;5093647;28;20048;-54
2022/01/29 08:58:06;;;;;;;3.35;1.30;;;;;;;8.65;100.00;102563.44;5093718;28;20056;-54
2022/01/29 09:00:35;;;;;;;2.08;1.10;;;;;;;8.72;100.00;102572.97;5094091;28;20400;-54
2022/01/29 09:03:04;;;;;;;1.55;1.00;;;;;;;8.73;100.00;102566.78;5094425;28;20091;-54
2022/01/29 09:05:34;;;;;;;1.73;1.05;;;;;;;8.78;100.00;102564.06;5093866;28;20059;-54
2022/01/29 09:08:04;;;;;;;2.60;1.10;;;;;;;8.78;100.00;102567.56;5094412;28;20105;-54
2022/01/29 09:10:32;;;;;;;2.72;1.38;;;;;;;8.84;100.00;102564.78;5094316;28;20056;-54
2022/01/29 09:13:04;;;;;;;2.20;1.08;;;;;;;8.95;100.00;102566.31;5094114;28;20087;-54
2022/01/29 09:15:32;;;;;;;3.22;1.13;;;;;;;9.03;100.00;102559.09;5094377;28;20060;-54
2022/01/29 09:18:00;;;;;;;2.70;1.33;;;;;;;9.13;100.00;102557.97;5097397;28;20088;-54
2022/01/29 09:20:29;;;;;;;1.83;1.13;;;;;;;9.20;100.00;102556.03;5097853;28;20056;-54
2022/01/29 09:22:58;;;;;;;3.65;1.00;;;;;;;9.32;100.00;102553.09;5097997;28;20063;-54
2022/01/29 09:25:27;;;;;;;1.52;0.90;;;;;;;9.33;100.00;102557.47;5098066;28;20052;-54
2022/01/29 09:27:55;;;;;;;2.25;1.20;;;;;;;9.38;100.00;102554.69;5097326;28;20056;-54
2022/01/29 09:30:26;;;;;;;2.47;1.20;;;;;;;9.40;100.00;102559.06;5097821;28;20064;-54
2022/01/29 09:32:54;;;;;;;2.70;1.20;;;;;;;9.48;100.00;102550.91;5097030;28;20052;-54
2022/01/29 09:35:23;;;;;;;1.80;1.08;;;;;;;9.54;100.00;102555.22;5096960;28;20056;-54
2022/01/29 09:37:51;;;;;;;1.88;1.00;;;;;;;9.56;100.00;102548.94;5097740;28;20106;-54
2022/01/29 09:40:19;;;;;;;4.68;0.98;;;;;;;9.61;100.00;102552.34;5097110;28;20055;-54
2022/01/29 09:42:51;;;;;;;2.08;1.10;;;;;;;9.60;100.00;102533.84;5097607;28;20064;-54
2022/01/29 09:45:21;;;;;;;1.70;1.05;;;;;;;9.83;100.00;102547.38;5097117;28;20056;-54
2022/01/29 09:48:01;;;;;;;2.10;0.95;;;;;;;10.04;100.00;102542.41;5096711;28;20148;-54
2022/01/29 09:50:30;;;;;;;1.17;0.80;;;;;;;9.97;100.00;102544.34;5098066;28;20383;-54
2022/01/29 09:52:59;;;;;;;1.02;0.80;;;;;;;10.10;100.00;102552.81;5097629;28;20411;-54
2022/01/29 09:55:29;;;;;;;4.82;0.73;;;;;;;10.08;100.00;102561.75;5096947;28;20089;-54
2022/01/29 09:57:58;;;;;;;1.50;0.60;;;;;;;9.95;100.00;102562.09;5097097;28;20560;-54
2022/01/29 10:00:27;;;;;;;1.52;0.82;;;;;;;10.01;100.00;102561.91;5096873;28;20060;-54
2022/01/29 10:03:17;;;;;;;2.17;0.95;;;;;;;10.28;100.00;102559.41;5097640;28;20056;-54
2022/01/29 10:05:47;;;;;;;1.42;0.70;;;;;;;10.50;99.86;102580.06;5096403;28;20052;-54
2022/01/29 10:08:15;;;;;;;1.35;0.75;;;;;;;10.60;96.86;102571.75;5096532;28;20549;-54
2022/01/29 10:10:45;;;;;;;2.00;1.00;;;;;;;10.72;96.67;102570.53;5096483;28;20056;-54
2022/01/29 10:13:27;;;;;;;1.67;0.73;;;;;;;10.72;95.43;102573.19;5097681;28;20056;-54
2022/01/29 10:16:08;;;;;;;1.17;0.70;;;;;;;10.66;96.56;102583.13;5096216;28;20070;-54
2022/01/29 10:18:39;;;;;;;1.50;0.70;;;;;;;10.57;97.38;102576.31;5097197;28;20135;-54
2022/01/29 10:21:09;;;;;;;3.10;1.25;;;;;;;10.58;97.86;102578.91;5096133;28;20060;-54
2022/01/29 10:23:37;;;;;;;1.35;0.82;;;;;;;10.68;98.05;102581.31;5096643;28;20062;-54
2022/01/29 10:26:07;;;;;;;1.55;0.77;;;;;;;10.82;97.35;102575.56;5096024;28;20063;-54
2022/01/29 10:28:39;;;;;;;3.58;0.60;;;;;;;10.86;96.83;102585.19;5096753;28;20442;-54
2022/01/29 10:31:08;;;;;;;0.68;0.50;;;;;;;10.70;97.25;102580.34;5096775;28;20070;-55
2022/01/29 10:33:39;;;;;;;2.40;0.70;;;;;;;10.74;96.53;102579.34;5096416;28;20088;-54
2022/01/29 10:36:09;;;;;;;2.47;0.90;;;;;;;10.88;94.40;102586.03;5095799;28;20052;-54
2022/01/29 10:38:55;;;;;;;1.52;0.60;;;;;;;10.87;95.57;102584.28;5096428;28;20059;-54
2022/01/29 10:41:26;;;;;;;2.75;0.90;;;;;;;10.92;94.11;102609.75;5096539;28;20064;-54
2022/01/29 10:43:59;;;;;;;1.50;0.90;;;;;;;10.92;94.93;102603.59;5097076;28;20056;-54
2022/01/29 10:46:33;;;;;;;2.08;0.82;;;;;;;10.96;93.37;102607.88;5097036;28;20113;-54
2022/01/29 10:49:03;;;;;;;1.15;0.60;;;;;;;11.10;95.24;102605.69;5096123;28;20056;-54
2022/01/29 10:51:33;;;;;;;1.60;0.80;;;;;;;11.21;92.61;102609.78;5095859;28;20064;-54
2022/01/29 10:54:18;;;;;;;1.35;0.82;;;;;;;11.26;91.88;102618.47;5096205;28;20052;-54
2022/01/29 10:56:52;;;;;;;2.10;0.80;;;;;;;11.27;91.47;102620.22;5096285;28;20082;-55
2022/01/29 10:59:21;;;;;;;1.67;0.73;;;;;;;11.08;91.85;102618.16;5095387;28;20052;-55
2022/01/29 11:01:53;;;;;;;1.13;0.65;;;;;;;11.06;92.66;102627.06;5095324;28;20052;-55
2022/01/29 11:04:25;;;;;;;0.63;0.60;;;;;;;11.06;92.90;102625.31;5096130;28;20082;-55
2022/01/29 11:06:55;;;;;;;1.27;0.82;;;;;;;11.10;93.12;102628.72;5095246;28;20059;-55
2022/01/29 11:09:23;;;;;;;1.92;0.82;;;;;;;10.96;93.49;102626.47;5095621;28;20063;-55
2022/01/29 11:11:52;;;;;;;2.55;1.00;;;;;;;10.87;95.39;102626.75;5095286;28;20059;-55
2022/01/29 11:14:21;;;;;;;1.73;0.90;;;;;;;10.77;95.10;102636.78;5095376;28;20052;-55
2022/01/29 11:16:50;;;;;;;1.70;0.95;;;;;;;10.60;94.04;102629.28;5095239;28;20056;-55
2022/01/29 11:19:23;;;;;;;4.63;0.90;;;;;;;10.57;94.75;102630.25;5096003;28;20148;-54
2022/01/29 11:21:54;;;;;;;1.15;0.80;;;;;;;10.55;94.63;102626.75;5095165;28;20552;-54
2022/01/29 11:24:25;;;;;;;3.40;1.17;;;;;;;10.57;94.91;102632.03;5095969;28;20058;-55
2022/01/29 11:26:53;;;;;;;1.95;0.80;;;;;;;10.67;95.09;102630.00;5096262;28;20068;-55
2022/01/29 11:29:27;;;;;;;1.92;0.82;;;;;;;10.82;94.61;102623.38;5096005;28;20392;-55
2022/01/29 11:32:34;;;;;;;2.17;0.73;;;;;;;10.96;92.58;102637.09;5094665;28;20136;-55
2022/01/29 11:35:18;;;;;;;3.88;1.10;;;;;;;11.00;92.34;102633.44;5094688;28;20056;-55
2022/01/29 11:37:57;;;;;;;2.00;0.90;;;;;;;11.04;92.50;102628.91;5095927;28;20082;-55
2022/01/29 11:40:28;;;;;;;5.88;0.90;;;;;;;11.01;91.67;102635.19;5093640;28;20056;-55
2022/01/29 11:43:10;;;;;;;1.42;0.63;;;;;;;11.01;92.76;102635.19;5095697;28;20148;-55